Time;durP1;ratioP1;P1;durP2;ratioP2;P2;SDS_P1;SDS_P2;PMS_P1;PMS_P2;Temp;Humidity;BMP_temperature;BMP_pressure;BME280_temperature;BME280_humidity;BME280_pressure;Samples;Min_cycle;Max_cycle;Signal;HPM_P1;HPM_P2
2021/07/20 00:00:23;;;;;;;21.75;9.98;;;;;;;29.00;61.09;100852.72;5062254;27;65247;-33
2021/07/20 00:02:55;;;;;;;22.80;11.90;;;;;;;29.00;62.09;100848.13;5066719;27;71206;-35
2021/07/20 00:05:28;;;;;;;30.70;14.63;;;;;;;28.83;62.31;100825.31;5065062;27;65003;-35
2021/07/20 00:08:00;;;;;;;22.13;15.25;;;;;;;29.05;62.15;100861.88;5074901;27;70160;-36
2021/07/20 00:10:41;;;;;;;;;;;;;;;28.82;63.96;100862.28;5071218;27;66327;-34
2021/07/20 00:13:12;;;;;;;23.52;15.13;;;;;;;29.06;63.09;100874.38;5068836;27;69772;-37
2021/07/20 00:15:46;;;;;;;24.67;14.48;;;;;;;29.07;63.10;100869.78;5074932;27;43433;-41
2021/07/20 00:18:21;;;;;;;22.93;15.17;;;;;;;28.92;63.40;100841.09;5074318;27;68890;-35
2021/07/20 00:20:52;;;;;;;28.25;14.93;;;;;;;29.16;62.92;100879.34;5071234;27;66236;-34
2021/07/20 00:23:23;;;;;;;22.73;15.50;;;;;;;29.22;62.99;100886.59;5073363;27;70383;-34
2021/07/20 00:25:53;;;;;;;21.80;15.80;;;;;;;29.24;63.10;100892.63;5059915;27;65302;-33
2021/07/20 00:28:24;;;;;;;26.17;15.10;;;;;;;29.27;62.60;100885.97;5073210;27;70328;-32
2021/07/20 00:30:56;;;;;;;28.00;15.45;;;;;;;29.29;63.10;100892.84;5071575;27;67101;-34
2021/07/20 00:33:26;;;;;;;31.63;15.60;;;;;;;29.33;62.73;100896.78;5073403;27;70483;-34
2021/07/20 00:35:57;;;;;;;28.50;14.63;;;;;;;29.36;63.00;100890.13;5075097;27;66213;-34
2021/07/20 00:38:27;;;;;;;26.63;14.77;;;;;;;29.39;63.23;100884.28;5063911;27;70519;-35
2021/07/20 00:41:03;;;;;;;32.08;14.43;;;;;;;29.43;62.59;100885.56;5067014;27;65497;-36
2021/07/20 00:43:34;;;;;;;36.72;14.65;;;;;;;29.45;63.17;100888.03;5061990;27;69211;-35
2021/07/20 00:46:04;;;;;;;24.80;14.30;;;;;;;29.47;62.89;100880.53;5058372;27;67068;-34
2021/07/20 00:48:35;;;;;;;25.65;13.38;;;;;;;29.28;63.20;100856.06;5066787;27;70272;-37
2021/07/20 00:51:19;;;;;;;24.92;14.32;;;;;;;29.37;62.53;100862.06;5068047;27;65473;-37
2021/07/20 00:53:50;;;;;;;18.20;12.80;;;;;;;29.60;62.45;100877.81;5074921;27;70692;-42
2021/07/20 00:56:26;;;;;;;19.77;12.68;;;;;;;29.67;62.25;100886.78;5074386;27;65548;-41
2021/07/20 00:58:57;;;;;;;19.85;12.00;;;;;;;29.65;62.14;100872.66;5075605;27;70554;-39
2021/07/20 01:01:29;;;;;;;;;;;;;;;29.56;62.70;100884.69;5076483;27;65771;-43
2021/07/20 01:03:59;;;;;;;13.27;10.35;;;;;;;29.76;61.84;100879.28;5070153;27;70404;-43
2021/07/20 01:06:48;;;;;;;18.33;11.32;;;;;;;29.86;61.44;100881.50;5075262;27;66095;-43
2021/07/20 01:09:20;;;;;;;16.58;10.93;;;;;;;29.90;61.55;100882.75;5074887;27;70371;-43
2021/07/20 01:11:58;;;;;;;21.55;10.20;;;;;;;29.92;60.95;100886.06;5071654;27;65167;-38
2021/07/20 01:14:34;;;;;;;18.70;10.48;;;;;;;29.93;61.23;100880.47;5071986;27;70475;-39
2021/07/20 01:17:19;;;;;;;21.92;11.52;;;;;;;29.86;61.17;100868.00;5064972;27;66684;-38
2021/07/20 01:19:54;;;;;;;13.77;10.43;;;;;;;29.97;61.90;100880.84;5074494;27;69610;-39
2021/07/20 01:22:32;;;;;;;14.82;11.05;;;;;;;29.98;61.40;100885.22;5068775;27;65306;-39
2021/07/20 01:25:11;;;;;;;22.92;12.45;;;;;;;29.98;62.18;100882.53;5070171;27;69668;-40
2021/07/20 01:27:53;;;;;;;17.52;11.57;;;;;;;29.96;61.76;100879.19;5073914;27;65553;-41
2021/07/20 01:30:25;;;;;;;14.35;11.88;;;;;;;30.00;62.29;100886.66;5080479;27;69329;-40
2021/07/20 01:33:01;;;;;;;18.77;11.98;;;;;;;29.75;62.19;100829.75;5068772;27;66291;-39
2021/07/20 01:35:34;;;;;;;19.55;12.55;;;;;;;29.79;61.95;100841.00;5071310;27;69308;-39
2021/07/20 01:38:08;;;;;;;17.13;12.27;;;;;;;30.09;62.48;100884.56;5067985;27;66255;-39
2021/07/20 01:40:40;;;;;;;32.08;12.65;;;;;;;30.02;62.38;100864.81;5057889;27;69483;-37
2021/07/20 01:43:11;;;;;;;;;;;;;;;29.97;62.98;100894.38;5068831;27;66292;-40
2021/07/20 01:45:51;;;;;;;24.67;13.80;;;;;;;30.22;62.52;100895.31;5089750;27;70011;-38
2021/07/20 01:48:30;;;;;;;27.40;14.07;;;;;;;30.25;62.58;100889.47;5079692;27;65330;-40
2021/07/20 01:51:11;;;;;;;24.27;13.50;;;;;;;30.32;63.32;100904.88;5092354;27;69165;-41
2021/07/20 01:53:45;;;;;;;20.85;11.85;;;;;;;30.35;63.09;100904.44;5075205;27;65150;-39
2021/07/20 01:56:23;;;;;;;18.30;12.15;;;;;;;30.37;63.02;100908.59;5068109;27;69210;-39
2021/07/20 01:58:54;;;;;;;17.93;10.17;;;;;;;30.37;63.53;100908.59;5072147;27;66470;-38
2021/07/20 02:01:46;;;;;;;20.00;9.65;;;;;;;30.43;63.61;100901.50;5076514;27;68540;-39
2021/07/20 02:10:02;;;;;;;17.50;7.68;;;;;;;30.56;63.34;100906.78;5067506;27;65405;-39
2021/07/20 02:12:43;;;;;;;14.30;7.63;;;;;;;30.29;63.83;100857.44;5060745;27;71114;-40
2021/07/20 02:15:31;;;;;;;15.15;8.55;;;;;;;30.63;64.01;100910.31;5075034;27;66406;-39
2021/07/20 02:18:29;;;;;;;14.57;7.30;;;;;;;30.67;64.16;100914.25;5052030;27;69598;-39
2021/07/20 02:21:09;;;;;;;10.15;7.03;;;;;;;30.69;64.51;100908.59;5070298;27;65822;-41
2021/07/20 02:23:50;;;;;;;15.00;7.43;;;;;;;30.43;63.76;100866.31;5076120;27;69376;-38
2021/07/20 02:26:24;;;;;;;12.10;7.43;;;;;;;30.43;64.48;100859.00;5074650;27;66321;-38
2021/07/20 02:28:57;;;;;;;19.40;7.65;;;;;;;30.16;64.16;100812.28;5074227;27;69730;-39
2021/07/20 02:31:30;;;;;;;12.95;7.47;;;;;;;30.75;63.76;100909.59;5075091;27;65803;-41
2021/07/20 02:34:04;;;;;;;13.18;7.20;;;;;;;30.77;64.40;100907.53;5076990;27;70875;-38
2021/07/20 02:36:38;;;;;;;17.02;7.72;;;;;;;30.77;64.36;100896.69;5059126;27;65158;-38
2021/07/20 02:39:12;;;;;;;11.05;6.78;;;;;;;30.81;64.67;100897.94;5070207;27;69851;-39
2021/07/20 02:41:49;;;;;;;10.93;7.57;;;;;;;30.51;64.46;100844.38;5074922;27;65998;-39
2021/07/20 02:44:23;;;;;;;14.77;6.75;;;;;;;30.54;64.08;100841.25;5071672;27;70539;-39
2021/07/20 02:46:54;;;;;;;11.05;6.50;;;;;;;30.82;64.44;100896.91;5074512;27;65390;-41
2021/07/20 02:49:27;;;;;;;16.30;6.75;;;;;;;30.86;65.03;100900.81;5076065;27;70238;-42
2021/07/20 02:52:07;;;;;;;15.95;7.03;;;;;;;30.88;64.99;100887.88;5074992;27;66677;-43
2021/07/20 02:54:41;;;;;;;13.52;6.07;;;;;;;30.97;65.05;100891.16;5076970;27;69421;-42
2021/07/20 02:57:17;;;;;;;14.50;5.78;;;;;;;31.01;64.39;100897.75;5072289;27;66654;-43
2021/07/20 02:59:55;;;;;;;13.80;5.60;;;;;;;31.06;64.68;100896.06;5071778;27;68742;-45
2021/07/20 03:02:51;;;;;;;17.92;6.60;;;;;;;31.10;64.43;100904.59;5071381;27;65678;-42
2021/07/20 03:05:27;;;;;;;19.75;6.15;;;;;;;31.16;64.24;100901.81;5057895;28;70690;-43
2021/07/20 03:08:01;;;;;;;22.15;5.82;;;;;;;31.23;64.42;100903.63;5056648;27;65848;-43
2021/07/20 03:10:41;;;;;;;15.40;5.30;;;;;;;31.28;63.93;100899.19;5058985;27;70059;-43
2021/07/20 03:13:17;;;;;;;12.48;4.47;;;;;;;31.30;63.92;100907.13;5077230;27;66554;-42
2021/07/20 03:15:52;;;;;;;12.38;5.10;;;;;;;31.32;63.70;100900.44;5071093;27;69538;-46
2021/07/20 03:18:29;;;;;;;7.45;4.60;;;;;;;31.09;63.79;100855.00;5074368;27;66944;-47
2021/07/20 03:21:03;;;;;;;8.68;4.90;;;;;;;31.40;63.41;100891.22;5066829;27;70197;-40
2021/07/20 03:23:37;;;;;;;11.48;4.72;;;;;;;31.40;62.98;100899.34;5058354;27;66764;-46
2021/07/20 03:26:27;;;;;;;8.60;4.65;;;;;;;31.39;63.35;100903.09;5057048;27;69537;-45
2021/07/20 03:29:09;;;;;;;14.27;4.65;;;;;;;31.16;63.26;100844.09;5069576;27;65486;-43
2021/07/20 03:31:42;;;;;;;13.10;5.22;;;;;;;31.38;63.16;100882.47;5065877;27;68418;-41
2021/07/20 03:34:14;;;;;;;18.90;5.43;;;;;;;31.40;63.17;100885.78;5066256;27;65573;-46
2021/07/20 03:36:46;;;;;;;;;;;;;;;31.16;63.87;100874.72;5085388;27;70125;-36
2021/07/20 03:39:18;;;;;;;8.95;5.13;;;;;;;31.44;63.06;100891.59;5070897;27;67189;-40
2021/07/20 03:42:00;;;;;;;11.88;5.68;;;;;;;31.16;63.21;100838.66;5072564;27;70175;-49
2021/07/20 03:44:36;;;;;;;9.30;4.43;;;;;;;31.44;62.74;100881.56;5071435;27;66735;-42
2021/07/20 03:47:07;;;;;;;7.97;3.80;;;;;;;31.44;61.75;100870.72;5073636;27;69318;-44
2021/07/20 03:49:39;;;;;;;9.23;4.50;;;;;;;31.37;62.21;100854.53;5072590;27;66206;-40
2021/07/20 03:52:10;;;;;;;;;;;;;;;31.26;61.99;100867.94;5075691;27;69695;-41
2021/07/20 03:54:42;;;;;;;11.75;3.75;;;;;;;31.55;61.29;100875.41;5058616;27;65308;-40
2021/07/20 03:57:20;;;;;;;12.27;4.65;;;;;;;31.53;60.71;100863.94;5066863;27;70076;-41
2021/07/20 03:59:56;;;;;;;10.50;3.50;;;;;;;31.59;60.70;100865.78;5065650;27;65600;-40
2021/07/20 04:02:56;;;;;;;9.05;3.55;;;;;;;31.54;60.73;100841.22;5069397;27;70479;-40
2021/07/20 04:06:10;;;;;;;8.90;3.65;;;;;;;31.62;60.93;100842.78;5071136;27;65275;-42
2021/07/20 04:08:54;;;;;;;4.35;2.88;;;;;;;31.59;60.85;100844.09;5087416;27;70139;-41
2021/07/20 04:11:42;;;;;;;5.38;3.50;;;;;;;31.55;61.22;100832.03;5057512;27;65611;-43
2021/07/20 04:14:14;;;;;;;9.30;3.72;;;;;;;31.55;60.79;100842.03;5065271;27;70300;-42
2021/07/20 04:16:53;;;;;;;7.45;4.10;;;;;;;31.53;60.96;100842.25;5020319;28;66315;-40
2021/07/20 04:19:25;;;;;;;9.43;3.13;;;;;;;31.52;61.44;100828.94;5091391;27;71316;-41
2021/07/20 04:22:16;;;;;;;5.18;3.50;;;;;;;31.52;61.49;100829.75;5074376;27;65602;-41
2021/07/20 04:24:49;;;;;;;14.75;4.63;;;;;;;31.56;61.41;100840.97;5059677;27;69898;-42
2021/07/20 04:27:21;;;;;;;10.27;4.43;;;;;;;31.40;61.77;100804.47;5072356;27;65859;-40
2021/07/20 04:29:53;;;;;;;7.85;4.13;;;;;;;31.66;61.74;100841.28;5071750;27;70080;-40
2021/07/20 04:32:26;;;;;;;9.43;3.97;;;;;;;31.60;62.00;100821.34;5070873;27;66330;-43
2021/07/20 04:35:00;;;;;;;5.88;4.05;;;;;;;31.74;60.81;100837.44;5071297;27;69531;-41
2021/07/20 04:37:41;;;;;;;7.13;3.70;;;;;;;31.77;60.73;100847.84;5075696;27;66443;-40
2021/07/20 04:40:14;;;;;;;5.80;3.63;;;;;;;31.60;60.78;100787.97;5072902;27;70060;-39
2021/07/20 04:42:46;;;;;;;6.15;3.70;;;;;;;31.83;60.44;100820.63;5074402;27;65451;-44
2021/07/20 04:45:18;;;;;;;10.70;3.97;;;;;;;31.90;60.07;100807.00;5069633;27;69930;-40
2021/07/20 04:47:58;;;;;;;6.57;3.22;;;;;;;31.96;60.37;100813.41;5071835;27;66451;-41
2021/07/20 04:50:47;;;;;;;10.90;3.92;;;;;;;32.03;60.21;100806.00;5074600;27;69723;-40
2021/07/20 04:53:18;;;;;;;5.55;3.60;;;;;;;32.08;60.42;100808.03;5070078;27;65274;-41
2021/07/20 04:55:51;;;;;;;7.47;3.95;;;;;;;32.13;59.93;100808.19;5074430;27;71621;-42
2021/07/20 04:58:24;;;;;;;9.85;4.10;;;;;;;32.19;59.67;100801.81;5072500;27;66192;-40
2021/07/20 05:00:55;;;;;;;4.90;3.13;;;;;;;32.09;58.88;100785.25;5074933;27;70323;-37
2021/07/20 05:03:31;;;;;;;16.52;3.05;;;;;;;32.01;57.07;100791.81;5076178;27;65489;-39
2021/07/20 05:06:05;;;;;;;11.98;2.97;;;;;;;31.90;55.73;100787.16;5068419;27;71002;-44
2021/07/20 05:08:51;;;;;;;13.43;2.88;;;;;;;31.74;55.44;100783.22;5036235;27;66159;-44
2021/07/20 05:11:25;;;;;;;9.30;2.13;;;;;;;31.59;54.59;100781.72;5046108;28;69964;-42
2021/07/20 05:13:57;;;;;;;4.37;1.60;;;;;;;31.46;54.26;100786.47;5074473;27;66568;-36
2021/07/20 05:16:28;;;;;;;12.48;1.85;;;;;;;31.29;52.60;100769.97;5074384;27;70899;-38
2021/07/20 05:19:06;;;;;;;6.88;1.38;;;;;;;31.24;52.13;100772.53;5073192;27;65569;-38
2021/07/20 05:21:49;;;;;;;3.28;1.23;;;;;;;31.16;51.56;100765.50;5073022;27;70993;-40
2021/07/20 05:24:28;;;;;;;4.13;1.13;;;;;;;31.05;50.87;100742.69;5076174;27;66094;-39
2021/07/20 05:27:01;;;;;;;3.38;0.90;;;;;;;31.00;50.91;100745.25;5070166;27;69239;-41
2021/07/20 05:29:36;;;;;;;1.27;0.70;;;;;;;30.82;49.45;100731.69;5072291;27;66592;-38
2021/07/20 05:32:27;;;;;;;4.63;0.77;;;;;;;30.82;49.63;100753.38;5068385;27;69539;-37
2021/07/20 05:34:58;;;;;;;1.63;0.75;;;;;;;30.80;48.68;100739.22;5071206;27;65828;-39
2021/07/20 05:37:35;;;;;;;1.73;0.90;;;;;;;30.80;48.49;100733.78;5070983;27;69379;-37
2021/07/20 05:40:12;;;;;;;1.45;0.65;;;;;;;30.79;47.63;100718.56;5073605;27;65208;-38
2021/07/20 05:42:46;;;;;;;1.50;0.65;;;;;;;30.74;47.04;100708.41;5067937;27;70623;-38
2021/07/20 05:45:31;;;;;;;1.17;0.60;;;;;;;30.71;47.04;100703.44;5052684;27;66518;-38
2021/07/20 05:48:04;;;;;;;5.05;0.90;;;;;;;30.67;46.98;100708.47;5060832;28;69843;-39
2021/07/20 05:50:51;;;;;;;2.40;0.98;;;;;;;30.14;46.58;100621.47;5078028;27;65908;-41
2021/07/20 05:53:48;;;;;;;1.67;0.70;;;;;;;30.57;46.58;100740.63;5054080;27;70761;-38
2021/07/20 05:56:37;;;;;;;0.93;0.60;;;;;;;30.48;46.45;100741.97;5082595;27;65671;-39
2021/07/20 05:59:24;;;;;;;1.15;0.70;;;;;;;30.50;46.12;100734.44;5044574;28;67907;-42
2021/07/20 06:02:13;;;;;;;1.48;0.80;;;;;;;30.45;45.81;100742.38;5076192;27;67234;-36
2021/07/20 06:04:46;;;;;;;2.33;0.73;;;;;;;30.40;45.88;100731.41;5068677;27;70113;-37
2021/07/20 06:07:16;;;;;;;0.77;0.40;;;;;;;30.27;45.23;100716.94;5079677;27;65719;-39
2021/07/20 06:09:48;;;;;;;2.20;0.80;;;;;;;30.31;46.26;100708.38;5079179;27;69660;-36
2021/07/20 06:12:21;;;;;;;0.98;0.70;;;;;;;30.27;45.48;100711.53;5061361;28;66854;-38
2021/07/20 06:14:52;;;;;;;0.73;0.63;;;;;;;30.27;46.21;100703.41;5076431;27;69390;-36
2021/07/20 06:17:24;;;;;;;1.40;0.70;;;;;;;30.26;44.99;100693.63;5044144;28;66523;-38
2021/07/20 06:19:55;;;;;;;1.13;0.63;;;;;;;30.24;45.65;100694.91;5072652;27;70542;-39
2021/07/20 06:22:32;;;;;;;4.38;0.55;;;;;;;30.21;44.61;100698.84;5074250;27;66900;-37
2021/07/20 06:25:10;;;;;;;1.08;0.70;;;;;;;30.20;44.67;100712.56;5072022;27;70309;-37
2021/07/20 06:27:42;;;;;;;1.20;0.60;;;;;;;30.18;44.73;100715.53;5071961;27;66128;-39
2021/07/20 06:30:15;;;;;;;0.95;0.50;;;;;;;29.82;44.00;100662.09;5070411;27;69816;-39
2021/07/20 06:32:47;;;;;;;1.25;0.50;;;;;;;30.09;44.30;100700.63;5072035;27;66240;-38
2021/07/20 06:35:19;;;;;;;1.17;0.60;;;;;;;30.09;43.21;100694.34;5068054;27;70273;-37
2021/07/20 06:37:51;;;;;;;0.93;0.60;;;;;;;30.07;43.85;100697.28;5064783;27;66511;-37
2021/07/20 06:40:22;;;;;;;1.35;0.43;;;;;;;29.97;43.76;100680.72;5071270;27;69301;-35
2021/07/20 06:42:55;;;;;;;0.75;0.45;;;;;;;30.01;43.34;100688.19;5070127;27;65677;-37
2021/07/20 06:45:28;;;;;;;0.88;0.50;;;;;;;29.94;43.16;100689.25;5072548;27;69857;-36
2021/07/20 06:47:59;;;;;;;0.60;0.40;;;;;;;29.96;43.09;100692.59;5067931;27;66308;-37
2021/07/20 06:50:31;;;;;;;0.80;0.50;;;;;;;29.90;43.05;100680.78;5068370;27;69833;-36
2021/07/20 06:53:01;;;;;;;0.98;0.60;;;;;;;29.83;43.16;100688.91;5066280;27;66244;-37
2021/07/20 06:55:34;;;;;;;1.35;0.57;;;;;;;29.92;42.59;100711.13;5068689;27;69452;-37
2021/07/20 06:58:06;;;;;;;1.70;0.50;;;;;;;29.84;43.22;100733.03;5066719;27;66188;-39
2021/07/20 07:00:36;;;;;;;0.90;0.60;;;;;;;29.84;43.77;100752.78;5073063;27;69343;-39
2021/07/20 07:03:11;;;;;;;1.10;0.50;;;;;;;29.86;43.32;100781.47;5068876;27;65668;-37
2021/07/20 07:05:42;;;;;;;2.08;0.75;;;;;;;29.75;43.69;100758.63;5068357;27;69381;-40
2021/07/20 07:08:14;;;;;;;0.90;0.50;;;;;;;29.80;45.64;100762.34;5053205;28;65342;-37
2021/07/20 07:10:47;;;;;;;1.83;0.70;;;;;;;29.88;45.51;100744.22;5070853;27;70028;-37
2021/07/20 07:13:19;;;;;;;1.27;0.52;;;;;;;29.90;46.61;100707.00;5073548;27;65647;-38
2021/07/20 07:15:51;;;;;;;4.72;0.65;;;;;;;30.01;47.96;100707.13;5045995;27;68934;-38
2021/07/20 07:18:23;;;;;;;1.80;0.77;;;;;;;29.97;48.64;100678.81;5075773;27;65523;-35
2021/07/20 07:20:56;;;;;;;4.63;0.40;;;;;;;30.19;48.70;100690.09;5073971;27;69835;-38
2021/07/20 07:23:29;;;;;;;1.23;0.70;;;;;;;30.03;49.88;100637.41;5053676;28;65186;-36
2021/07/20 07:26:01;;;;;;;2.88;1.13;;;;;;;30.44;51.52;100673.06;5054606;28;70032;-36
2021/07/20 07:28:32;;;;;;;8.10;0.82;;;;;;;30.53;52.76;100663.63;5063874;27;66879;-38
2021/07/20 07:31:04;;;;;;;2.95;1.33;;;;;;;30.55;53.74;100663.41;5067903;27;70048;-37
2021/07/20 07:33:35;;;;;;;4.60;0.98;;;;;;;30.42;54.06;100623.75;5077526;27;67235;-39
2021/07/20 07:36:11;;;;;;;5.25;1.17;;;;;;;30.50;54.25;100604.50;5071800;27;69129;-41
2021/07/20 07:38:46;;;;;;;5.38;1.20;;;;;;;30.76;54.65;100632.34;5063816;27;66149;-38
2021/07/20 07:41:17;;;;;;;4.53;1.13;;;;;;;30.82;54.91;100618.78;5071735;27;70245;-38
2021/07/20 07:43:50;;;;;;;2.83;1.20;;;;;;;30.93;55.70;100636.16;5069754;27;65097;-40
2021/07/20 07:46:22;;;;;;;1.67;1.10;;;;;;;30.98;55.35;100639.03;5067778;27;69634;-37
2021/07/20 07:48:54;;;;;;;4.28;1.50;;;;;;;31.03;55.86;100631.00;5071740;27;66082;-36
2021/07/20 07:51:26;;;;;;;2.45;1.20;;;;;;;31.08;56.03;100628.44;5068436;27;70318;-39
2021/07/20 07:54:00;;;;;;;2.63;1.42;;;;;;;31.09;56.94;100638.25;5071805;27;66646;-36
2021/07/20 07:56:31;;;;;;;4.47;1.85;;;;;;;31.10;56.94;100630.94;5070573;27;69660;-37
2021/07/20 07:59:03;;;;;;;10.30;1.83;;;;;;;31.16;57.47;100641.69;5067838;27;66625;-38
2021/07/20 08:01:34;;;;;;;;;;;;;;;30.97;58.67;100675.25;5072506;27;70054;-37
2021/07/20 08:04:09;;;;;;;7.85;2.50;;;;;;;31.16;58.69;100657.94;5062700;27;66402;-36
2021/07/20 08:06:42;;;;;;;5.38;3.00;;;;;;;31.21;58.74;100680.84;5061709;27;69580;-34
2021/07/20 08:09:16;;;;;;;4.07;2.85;;;;;;;31.23;59.99;100681.41;5050890;28;66123;-38
2021/07/20 08:11:50;;;;;;;4.25;3.35;;;;;;;31.14;60.01;100681.72;5074343;27;69630;-39
2021/07/20 08:14:23;;;;;;;6.20;3.63;;;;;;;31.23;60.10;100678.72;5070722;27;66199;-39
2021/07/20 08:16:58;;;;;;;3.35;3.05;;;;;;;31.24;60.64;100674.97;5072014;27;70879;-34
2021/07/20 08:19:33;;;;;;;7.70;3.33;;;;;;;31.24;60.49;100681.22;5071999;27;66329;-38
2021/07/20 08:22:08;;;;;;;4.28;3.35;;;;;;;31.24;60.68;100661.41;5071025;27;70126;-39
2021/07/20 08:24:45;;;;;;;7.85;3.65;;;;;;;31.03;60.13;100625.59;5069283;27;66222;-38
2021/07/20 08:27:40;;;;;;;3.42;3.13;;;;;;;31.22;60.86;100639.13;5071661;27;70146;-36
2021/07/20 08:30:12;;;;;;;6.25;3.25;;;;;;;31.14;60.96;100624.81;5071427;27;66244;-38
2021/07/20 08:32:51;;;;;;;4.95;3.55;;;;;;;31.23;60.80;100624.50;5069574;27;69307;-39
2021/07/20 08:35:26;;;;;;;3.72;2.40;;;;;;;30.92;60.52;100550.53;5086312;27;66588;-36
2021/07/20 08:38:06;;;;;;;3.05;2.85;;;;;;;31.26;61.02;100603.22;5071821;27;69310;-38
2021/07/20 08:40:50;;;;;;;2.20;1.80;;;;;;;31.25;60.87;100590.72;5075653;27;66794;-35
2021/07/20 08:43:49;;;;;;;2.65;1.75;;;;;;;31.19;60.74;100583.50;5070942;27;69607;-37
2021/07/20 08:46:42;;;;;;;2.20;1.70;;;;;;;31.23;61.21;100600.13;5054930;28;66347;-37
2021/07/20 08:49:26;;;;;;;;;;;;;;;30.98;62.07;100602.94;5068206;27;69570;-39
2021/07/20 08:52:05;;;;;;;5.03;1.55;;;;;;;31.19;61.34;100613.31;5071607;27;65945;-34
2021/07/20 08:54:46;;;;;;;3.70;1.45;;;;;;;30.94;60.81;100559.25;5072288;27;70307;-34
2021/07/20 08:57:26;;;;;;;5.18;1.77;;;;;;;31.26;60.76;100605.09;5066726;27;66260;-38
2021/07/20 09:00:08;;;;;;;1.40;1.30;;;;;;;31.16;60.77;100603.75;5056434;28;68449;-36
2021/07/20 09:02:58;;;;;;;1.92;1.42;;;;;;;31.16;60.93;100625.44;5040639;27;66681;-36
2021/07/20 09:05:43;;;;;;;3.50;1.50;;;;;;;31.22;61.08;100633.72;5066976;27;70077;-47
2021/07/20 09:08:44;;;;;;;2.60;1.45;;;;;;;31.11;61.39;100638.84;5055698;28;66685;-37
2021/07/20 09:11:45;;;;;;;3.20;1.20;;;;;;;31.12;61.29;100626.09;5070819;27;70461;-37
2021/07/20 09:14:36;;;;;;;3.28;1.23;;;;;;;31.16;60.64;100617.31;5064900;27;67026;-34
2021/07/20 09:17:18;;;;;;;1.48;1.10;;;;;;;30.94;61.20;100562.78;5065514;27;69922;-35
2021/07/20 09:20:08;;;;;;;2.42;1.50;;;;;;;31.19;60.67;100607.06;5073247;27;65801;-36
2021/07/20 09:22:41;;;;;;;2.85;0.98;;;;;;;31.22;61.03;100612.84;5067898;27;70116;-36
2021/07/20 09:25:21;;;;;;;1.30;1.10;;;;;;;31.23;60.80;100614.53;5066977;27;65233;-37
2021/07/20 09:28:05;;;;;;;2.63;1.00;;;;;;;31.17;61.06;100620.84;5065444;27;70287;-37
2021/07/20 09:30:48;;;;;;;2.60;1.23;;;;;;;30.94;61.15;100581.75;5073262;27;65385;-37
2021/07/20 09:33:32;;;;;;;3.40;1.50;;;;;;;31.13;60.71;100617.75;5072549;27;70519;-36
2021/07/20 09:36:15;;;;;;;1.55;1.17;;;;;;;31.14;60.92;100635.66;5073916;27;66125;-35
2021/07/20 09:39:39;;;;;;;2.42;1.25;;;;;;;31.10;61.84;100639.91;5071133;27;70206;-36
2021/07/20 09:42:25;;;;;;;4.68;1.25;;;;;;;31.23;60.59;100646.19;5040264;27;66000;-40
2021/07/20 09:45:24;;;;;;;6.20;1.42;;;;;;;31.20;61.33;100657.50;5074412;27;70378;-37
2021/07/20 09:48:22;;;;;;;5.38;1.50;;;;;;;31.15;61.98;100642.75;5071117;27;66189;-36
2021/07/20 09:51:11;;;;;;;2.72;1.50;;;;;;;31.18;61.78;100660.44;5075519;27;70176;-37
2021/07/20 09:54:00;;;;;;;6.25;1.77;;;;;;;31.23;62.22;100643.47;5054828;27;65517;-36
2021/07/20 09:56:47;;;;;;;4.55;2.13;;;;;;;31.27;61.99;100648.22;5074032;27;70165;-35
2021/07/20 09:59:42;;;;;;;8.88;3.42;;;;;;;31.25;63.02;100657.63;5070464;27;65812;-36
2021/07/20 10:02:27;;;;;;;5.68;3.15;;;;;;;31.29;62.19;100651.53;5075771;27;70432;-35
2021/07/20 10:05:35;;;;;;;9.90;2.58;;;;;;;31.29;62.58;100656.13;5076933;27;65007;-39
2021/07/20 10:08:47;;;;;;;12.05;3.10;;;;;;;31.25;63.26;100644.09;5079986;27;70081;-39
2021/07/20 10:11:49;;;;;;;3.23;2.07;;;;;;;31.29;63.30;100650.72;5070510;27;66384;-37
2021/07/20 10:14:40;;;;;;;;;;;;;;;31.11;63.38;100654.25;5075024;27;69816;-36
2021/07/20 10:17:44;;;;;;;3.75;2.08;;;;;;;31.26;63.43;100656.56;5072051;27;66467;-35
2021/07/20 10:20:26;;;;;;;6.15;2.20;;;;;;;31.02;62.65;100601.47;5074347;27;70449;-35
2021/07/20 10:23:24;;;;;;;3.72;1.85;;;;;;;31.23;63.25;100646.19;5074129;27;66315;-35
2021/07/20 10:26:36;;;;;;;3.15;1.77;;;;;;;31.27;62.60;100653.66;5073123;27;69209;-37
2021/07/20 10:29:19;;;;;;;2.28;1.60;;;;;;;31.25;62.77;100660.34;5073589;27;66950;-37
2021/07/20 10:32:13;;;;;;;3.95;2.03;;;;;;;31.24;62.55;100664.94;5071913;27;69741;-37
2021/07/20 10:34:55;;;;;;;5.93;2.00;;;;;;;30.89;62.95;100613.28;5072035;27;67905;-38
2021/07/20 10:37:30;;;;;;;3.33;1.77;;;;;;;31.22;62.88;100652.69;5071572;27;69957;-38
2021/07/20 10:40:07;;;;;;;2.97;1.85;;;;;;;31.22;62.92;100652.69;5081084;27;65788;-37
2021/07/20 10:42:56;;;;;;;2.28;1.67;;;;;;;30.87;62.59;100601.84;5074266;27;69831;-37
2021/07/20 10:45:33;;;;;;;3.97;1.73;;;;;;;31.03;63.05;100628.31;5068372;27;65310;-40
2021/07/20 10:48:07;;;;;;;4.28;2.20;;;;;;;30.89;62.53;100602.44;5069191;27;69917;-43
2021/07/20 10:50:53;;;;;;;3.90;3.28;;;;;;;31.15;61.43;100653.59;5070182;27;65186;-40
2021/07/20 10:53:51;;;;;;;5.18;3.83;;;;;;;31.05;60.55;100661.41;5069939;27;70383;-41
2021/07/20 10:57:01;;;;;;;5.07;4.57;;;;;;;31.03;60.35;100663.53;5068333;27;66135;-41
2021/07/20 11:00:10;;;;;;;4.68;4.07;;;;;;;31.00;60.10;100669.41;5074168;27;69039;-41
2021/07/20 11:03:06;;;;;;;5.63;4.53;;;;;;;30.97;60.22;100666.31;5075942;27;66223;-42
2021/07/20 11:05:44;;;;;;;4.43;4.10;;;;;;;30.93;60.18;100647.00;5073804;27;70102;-43
2021/07/20 11:08:16;;;;;;;6.38;4.38;;;;;;;30.95;60.26;100661.13;5058260;28;65214;-40
2021/07/20 11:10:49;;;;;;;;;;;;;;;30.77;60.84;100669.22;5072935;27;69093;-42
2021/07/20 11:13:33;;;;;;;10.32;3.83;;;;;;;30.71;60.03;100627.63;5069125;27;66369;-42
2021/07/20 11:16:10;;;;;;;7.20;3.83;;;;;;;30.98;59.74;100671.53;5067683;27;69139;-44
2021/07/20 11:18:42;;;;;;;4.32;3.70;;;;;;;30.80;59.92;100647.13;5071934;27;66104;-43
2021/07/20 11:21:16;;;;;;;4.38;3.97;;;;;;;30.96;59.49;100679.03;5073368;27;70472;-43
2021/07/20 11:23:48;;;;;;;6.00;4.25;;;;;;;30.95;59.92;100682.78;5052787;27;65165;-41
2021/07/20 11:26:21;;;;;;;4.57;3.95;;;;;;;30.69;59.79;100657.63;5070034;27;70356;-39
2021/07/20 11:28:53;;;;;;;8.90;4.15;;;;;;;30.93;59.92;100696.56;5068797;27;66484;-42
2021/07/20 11:31:33;;;;;;;7.25;4.60;;;;;;;30.63;60.10;100653.09;5085391;27;71578;-41
2021/07/20 11:34:19;;;;;;;4.63;4.22;;;;;;;30.88;60.18;100701.81;5066566;27;64531;-43
2021/07/20 11:36:55;;;;;;;6.38;4.40;;;;;;;30.91;60.22;100697.84;5090286;27;70313;-41
2021/07/20 11:39:31;;;;;;;10.50;5.03;;;;;;;30.87;60.33;100693.91;5073709;27;66508;-48
2021/07/20 11:42:33;;;;;;;13.68;6.35;;;;;;;30.80;60.17;100706.72;5055762;28;70577;-36
2021/07/20 11:45:10;;;;;;;6.97;6.35;;;;;;;30.74;60.77;100711.13;5064641;27;65237;-39
2021/07/20 11:47:49;;;;;;;9.27;6.30;;;;;;;30.68;60.63;100712.00;5069701;27;70186;-40
2021/07/20 11:50:49;;;;;;;7.30;6.63;;;;;;;30.58;61.05;100709.78;5050347;28;66124;-37
2021/07/20 11:53:41;;;;;;;9.90;6.22;;;;;;;30.61;61.08;100720.19;5057325;28;69336;-36
2021/07/20 11:56:22;;;;;;;11.35;8.05;;;;;;;30.69;61.57;100724.50;5070801;27;66494;-38
2021/07/20 11:59:29;;;;;;;10.20;7.18;;;;;;;30.67;61.45;100715.75;5070117;27;69997;-37
2021/07/20 12:02:17;;;;;;;10.35;6.28;;;;;;;30.72;60.89;100716.75;5069565;27;64171;-35
2021/07/20 12:05:28;;;;;;;20.42;6.63;;;;;;;30.71;61.69;100725.91;5066007;27;69883;-37
2021/07/20 12:08:28;;;;;;;8.15;7.05;;;;;;;30.64;61.13;100725.16;5023344;28;65946;-36
2021/07/20 12:11:15;;;;;;;9.77;6.50;;;;;;;30.66;61.90;100728.47;5076241;27;70223;-36
2021/07/20 12:13:45;;;;;;;7.60;6.80;;;;;;;30.65;61.24;100726.00;5073162;27;66408;-38
2021/07/20 12:16:17;;;;;;;8.00;6.05;;;;;;;30.70;61.65;100735.09;5071020;27;70410;-37
2021/07/20 12:18:56;;;;;;;8.70;6.83;;;;;;;30.67;61.65;100740.97;5077754;27;66575;-43
2021/07/20 12:21:29;;;;;;;7.78;6.90;;;;;;;30.40;61.15;100701.66;5071486;27;70267;-44
2021/07/20 12:24:06;;;;;;;16.58;9.70;;;;;;;30.69;61.94;100763.22;5078655;27;66269;-44